Tabellarische Übersicht vom Freitag, den 03.12.2021

Oder anderes Datum wählen:






max 4,7°C 96,0% 2,3°C 1010,3hPa 5,0°C 0,0km/h (0Bft) 0,0km/h 0° (N) ∑0,5l/m² 13,000klx ∑173,8min
min -1,2°C 75,0% -1,8°C 1002,6hPa -1,0°C 0,0km/h (0Bft) 0,0km/h 0° (N) ∑0,5l/m² 0,000klx ∑173,8min
Ø 2,2°C 89,0% 0,5°C 1007,9hPa 2,0°C 0,0km/h (0Bft) 0,0km/h 0° (N) ∑0,5l/m² 5,000klx ∑173,8min
Zeit Temperatur Luftfeuchte Taupunkt Luftdruck Windchill Windböen Windgeschwindigkeit Windrichtung Regen Helligkeit Regenzeit
20:25 3,3°C 93,3% 2,3°C 1002,6hPa 3,3°C 0,0km/h (0Bft) 0,0km/h 0,0l/m² 0,000klx 0,0min
20:20 3,2°C 93,5% 2,3°C 1002,6hPa 3,2°C 0,0km/h (0Bft) 0,0km/h 0,0l/m² 0,000klx 0,0min
20:15 3,2°C 93,6% 2,2°C 1002,7hPa 3,2°C 0,0km/h (0Bft) 0,0km/h 0,0l/m² 0,000klx 0,0min
20:10 3,1°C 93,7% 2,2°C 1002,9hPa 3,1°C 0,0km/h (0Bft) 0,0km/h 0,0l/m² 0,000klx 0,0min
20:05 3,1°C 93,7% 2,1°C 1003,0hPa 3,1°C 0,0km/h (0Bft) 0,0km/h 0,0l/m² 0,000klx 0,0min
20:00 3,0°C 93,8% 2,1°C 1003,1hPa 3,0°C 0,0km/h (0Bft) 0,0km/h 0,0l/m² 0,000klx 0,0min
19:55 2,9°C 93,8% 2,0°C 1003,2hPa 2,9°C 0,0km/h (0Bft) 0,0km/h 0,0l/m² 0,000klx 0,0min
19:50 2,9°C 93,9% 2,0°C 1003,2hPa 2,9°C 0,0km/h (0Bft) 0,0km/h 0,0l/m² 0,000klx 0,0min
19:45 2,9°C 93,9% 2,0°C 1003,2hPa 2,9°C 0,0km/h (0Bft) 0,0km/h 0,0l/m² 0,000klx 0,0min
19:40 3,0°C 94,0% 2,1°C 1003,2hPa 3,0°C 0,0km/h (0Bft) 0,0km/h 0,0l/m² 0,000klx 0,0min
19:35 3,0°C 93,9% 2,1°C 1003,3hPa 3,0°C 0,0km/h (0Bft) 0,0km/h 0,0l/m² 0,000klx 1,3min
19:30 3,0°C 94,0% 2,1°C 1003,4hPa 3,0°C 0,0km/h (0Bft) 0,0km/h 0,0l/m² 0,000klx 5,0min
19:25 3,0°C 93,9% 2,1°C 1003,5hPa 3,0°C 0,0km/h (0Bft) 0,0km/h 0,0l/m² 0,000klx 5,0min
19:20 3,0°C 93,9% 2,2°C 1003,7hPa 3,0°C 0,0km/h (0Bft) 0,0km/h 0,0l/m² 0,000klx 5,0min
19:15 3,0°C 93,8% 2,1°C 1003,8hPa 3,0°C 0,0km/h (0Bft) 0,0km/h 0,0l/m² 0,000klx 5,0min
19:10 3,0°C 93,8% 2,1°C 1003,9hPa 3,0°C 0,0km/h (0Bft) 0,0km/h 0,0l/m² 0,000klx 5,0min
19:05 3,1°C 94,0% 2,3°C 1004,0hPa 3,1°C 0,0km/h (0Bft) 0,0km/h 0,0l/m² 0,000klx 5,0min
19:00 3,1°C 93,9% 2,2°C 1004,1hPa 3,1°C 0,0km/h (0Bft) 0,0km/h 0,0l/m² 0,000klx 5,0min
18:55 3,1°C 93,8% 2,2°C 1004,2hPa 3,1°C 0,0km/h (0Bft) 0,0km/h 0,0l/m² 0,000klx 5,0min
18:50 3,1°C 93,8% 2,2°C 1004,2hPa 3,1°C 0,0km/h (0Bft) 0,0km/h 0,0l/m² 0,000klx 5,0min
18:45 3,0°C 93,7% 2,1°C 1004,3hPa 3,0°C 0,0km/h (0Bft) 0,0km/h 0,0l/m² 0,000klx 5,0min
18:40 3,0°C 93,7% 2,1°C 1004,3hPa 3,0°C 0,0km/h (0Bft) 0,0km/h 0,0l/m² 0,000klx 5,0min
18:35 3,0°C 93,8% 2,1°C 1004,3hPa 3,0°C 0,0km/h (0Bft) 0,0km/h 0,0l/m² 0,000klx 5,0min
18:30 3,0°C 93,9% 2,1°C 1004,3hPa 3,0°C 0,0km/h (0Bft) 0,0km/h 0,0l/m² 0,000klx 5,0min
18:25 3,0°C 93,7% 2,0°C 1004,4hPa 3,0°C 0,0km/h (0Bft) 0,0km/h 0,0l/m² 0,000klx 5,0min
18:20 2,9°C 93,9% 2,0°C 1004,4hPa 2,9°C 0,0km/h (0Bft) 0,0km/h 0,0l/m² 0,000klx 5,0min
18:15 2,9°C 93,6% 2,0°C 1004,4hPa 2,9°C 0,0km/h (0Bft) 0,0km/h 0,0l/m² 0,000klx 5,0min
18:10 2,9°C 93,5% 2,0°C 1004,4hPa 2,9°C 0,0km/h (0Bft) 0,0km/h 0,0l/m² 0,000klx 5,0min
18:05 2,9°C 93,5% 1,9°C 1004,4hPa 2,9°C 0,0km/h (0Bft) 0,0km/h 0,0l/m² 0,000klx 5,0min
18:00 3,0°C 93,6% 2,0°C 1004,4hPa 3,0°C 0,0km/h (0Bft) 0,0km/h 0,0l/m² 0,000klx 5,0min
17:55 2,9°C 93,5% 2,0°C 1004,5hPa 2,9°C 0,0km/h (0Bft) 0,0km/h 0,0l/m² 0,000klx 5,0min
17:50 2,9°C 93,5% 2,0°C 1004,5hPa 2,9°C 0,0km/h (0Bft) 0,0km/h 0,0l/m² 0,000klx 5,0min
17:45 2,9°C 93,5% 1,9°C 1004,6hPa 2,9°C 0,0km/h (0Bft) 0,0km/h 0,0l/m² 0,000klx 5,0min
17:40 2,9°C 93,6% 1,9°C 1004,5hPa 2,9°C 0,0km/h (0Bft) 0,0km/h 0,0l/m² 0,000klx 5,0min
17:35 2,9°C 93,7% 2,0°C 1004,5hPa 2,9°C 0,0km/h (0Bft) 0,0km/h 0,0l/m² 0,000klx 5,0min
17:30 2,9°C 93,7% 2,0°C 1004,6hPa 2,9°C 0,0km/h (0Bft) 0,0km/h 0,0l/m² 0,000klx 5,0min
17:25 2,9°C 93,7% 2,0°C 1004,7hPa 2,9°C 0,0km/h (0Bft) 0,0km/h 0,0l/m² 0,000klx 5,0min
17:20 2,9°C 93,3% 1,9°C 1004,8hPa 2,9°C 0,0km/h (0Bft) 0,0km/h 0,0l/m² 0,000klx 5,0min
17:15 2,9°C 93,0% 1,9°C 1004,8hPa 2,9°C 0,0km/h (0Bft) 0,0km/h 0,0l/m² 0,000klx 5,0min
17:10 2,9°C 92,6% 1,8°C 1004,8hPa 2,9°C 0,0km/h (0Bft) 0,0km/h 0,0l/m² 0,001klx 5,0min
17:05 3,0°C 92,3% 1,9°C 1004,8hPa 3,0°C 0,0km/h (0Bft) 0,0km/h 0,0l/m² 0,001klx 5,0min
17:00 3,0°C 91,9% 1,8°C 1004,9hPa 3,0°C 0,0km/h (0Bft) 0,0km/h 0,1l/m² 0,003klx 5,0min
16:55 3,0°C 91,5% 1,8°C 1005,1hPa 3,0°C 0,0km/h (0Bft) 0,0km/h 0,0l/m² 0,006klx 5,0min
16:50 3,0°C 90,9% 1,7°C 1005,2hPa 3,0°C 0,0km/h (0Bft) 0,0km/h 0,0l/m² 0,013klx 5,0min
16:45 3,0°C 90,0% 1,5°C 1005,2hPa 3,0°C 0,0km/h (0Bft) 0,0km/h 0,0l/m² 0,028klx 5,0min
16:40 3,1°C 89,2% 1,4°C 1005,2hPa 3,1°C 0,0km/h (0Bft) 0,0km/h 0,0l/m² 0,059klx 2,5min
16:35 3,2°C 88,6% 1,5°C 1005,2hPa 3,2°C 0,0km/h (0Bft) 0,0km/h 0,0l/m² 0,102klx 0,0min
16:30 3,4°C 87,5% 1,5°C 1005,2hPa 3,4°C 0,0km/h (0Bft) 0,0km/h 0,0l/m² 0,181klx 0,0min
16:25 3,4°C 86,3% 1,3°C 1005,2hPa 3,4°C 0,0km/h (0Bft) 0,0km/h 0,0l/m² 0,286klx 0,0min
16:20 3,5°C 85,3% 1,3°C 1005,2hPa 3,5°C 0,0km/h (0Bft) 0,0km/h 0,0l/m² 0,397klx 0,0min
16:15 3,7°C 83,6% 1,2°C 1005,2hPa 3,7°C 0,0km/h (0Bft) 0,0km/h 0,0l/m² 0,578klx 0,0min
16:10 3,9°C 81,3% 1,0°C 1005,3hPa 3,9°C 0,0km/h (0Bft) 0,0km/h 0,0l/m² 0,804klx 0,0min
16:05 4,1°C 79,2% 0,8°C 1005,3hPa 4,1°C 0,0km/h (0Bft) 0,0km/h 0,0l/m² 0,946klx 0,0min
16:00 4,2°C 78,2% 0,8°C 1005,3hPa 4,2°C 0,0km/h (0Bft) 0,0km/h 0,0l/m² 1,127klx 0,0min
15:55 4,3°C 77,4% 0,7°C 1005,3hPa 4,3°C 0,0km/h (0Bft) 0,0km/h 0,0l/m² 1,464klx 0,0min
15:50 4,3°C 76,5% 0,5°C 1005,3hPa 4,3°C 0,0km/h (0Bft) 0,0km/h 0,0l/m² 1,787klx 0,0min
15:45 4,4°C 76,7% 0,6°C 1005,3hPa 4,4°C 0,0km/h (0Bft) 0,0km/h 0,0l/m² 2,535klx 0,0min
15:40 4,3°C 76,5% 0,5°C 1005,2hPa 4,3°C 0,0km/h (0Bft) 0,0km/h 0,0l/m² 2,837klx 0,0min
15:35 4,4°C 76,2% 0,5°C 1005,2hPa 4,4°C 0,0km/h (0Bft) 0,0km/h 0,0l/m² 2,989klx 0,0min
15:30 4,4°C 76,0% 0,6°C 1005,2hPa 4,4°C 0,0km/h (0Bft) 0,0km/h 0,0l/m² 3,122klx 0,0min
15:25 4,5°C 76,3% 0,7°C 1005,3hPa 4,5°C 0,0km/h (0Bft) 0,0km/h 0,0l/m² 3,147klx 0,0min
15:20 4,4°C 76,2% 0,6°C 1005,4hPa 4,4°C 0,0km/h (0Bft) 0,0km/h 0,0l/m² 3,652klx 0,0min
15:15 4,4°C 76,5% 0,6°C 1005,5hPa 4,4°C 0,0km/h (0Bft) 0,0km/h 0,0l/m² 4,172klx 0,0min
15:10 4,5°C 76,3% 0,7°C 1005,5hPa 4,5°C 0,0km/h (0Bft) 0,0km/h 0,0l/m² 5,078klx 0,0min
15:05 4,6°C 76,2% 0,8°C 1005,6hPa 4,6°C 0,0km/h (0Bft) 0,0km/h 0,0l/m² 6,162klx 0,0min
15:00 4,6°C 75,2% 0,6°C 1005,6hPa 4,6°C 0,0km/h (0Bft) 0,0km/h 0,0l/m² 8,029klx 0,0min
14:55 4,6°C 75,9% 0,7°C 1005,5hPa 4,6°C 0,0km/h (0Bft) 0,0km/h 0,0l/m² 9,086klx 0,0min
14:50 4,6°C 77,0% 0,9°C 1005,6hPa 4,6°C 0,0km/h (0Bft) 0,0km/h 0,0l/m² 9,081klx 0,0min
14:45 4,5°C 76,7% 0,7°C 1005,8hPa 4,5°C 0,0km/h (0Bft) 0,0km/h 0,0l/m² 9,107klx 0,0min
14:40 4,6°C 76,4% 0,8°C 1005,9hPa 4,6°C 0,0km/h (0Bft) 0,0km/h 0,0l/m² 9,282klx 0,0min
14:35 4,6°C 76,0% 0,7°C 1005,9hPa 4,6°C 0,0km/h (0Bft) 0,0km/h 0,0l/m² 8,943klx 0,0min
14:30 4,6°C 75,8% 0,7°C 1005,9hPa 4,6°C 0,0km/h (0Bft) 0,0km/h 0,0l/m² 8,882klx 0,0min
14:25 4,5°C 76,6% 0,8°C 1005,9hPa 4,5°C 0,0km/h (0Bft) 0,0km/h 0,0l/m² 8,733klx 0,0min
14:20 4,5°C 76,3% 0,7°C 1006,0hPa 4,5°C 0,0km/h (0Bft) 0,0km/h 0,0l/m² 8,346klx 0,0min
14:15 4,6°C 76,2% 0,8°C 1006,1hPa 4,6°C 0,0km/h (0Bft) 0,0km/h 0,0l/m² 8,975klx 0,0min
14:10 4,7°C 76,1% 0,8°C 1006,2hPa 4,7°C 0,0km/h (0Bft) 0,0km/h 0,0l/m² 9,593klx 0,0min
14:05 4,5°C 76,3% 0,7°C 1006,2hPa 4,5°C 0,0km/h (0Bft) 0,0km/h 0,0l/m² 9,944klx 0,0min
14:00 4,6°C 77,1% 0,9°C 1006,4hPa 4,6°C 0,0km/h (0Bft) 0,0km/h 0,0l/m² 10,119klx 0,0min
13:55 4,6°C 77,4% 0,9°C 1006,5hPa 4,6°C 0,0km/h (0Bft) 0,0km/h 0,0l/m² 10,559klx 0,0min
13:50 4,6°C 77,3% 0,9°C 1006,7hPa 4,6°C 0,0km/h (0Bft) 0,0km/h 0,0l/m² 10,409klx 0,0min
13:45 4,5°C 77,7% 0,9°C 1006,8hPa 4,5°C 0,0km/h (0Bft) 0,0km/h 0,0l/m² 8,883klx 0,0min
13:40 4,4°C 77,8% 0,8°C 1007,0hPa 4,4°C 0,0km/h (0Bft) 0,0km/h 0,0l/m² 8,257klx 0,0min
13:35 4,3°C 78,1% 0,8°C 1007,1hPa 4,3°C 0,0km/h (0Bft) 0,0km/h 0,0l/m² 7,091klx 0,0min
13:30 4,2°C 78,5% 0,8°C 1007,2hPa 4,2°C 0,0km/h (0Bft) 0,0km/h 0,0l/m² 6,426klx 0,0min
13:25 4,3°C 78,4% 0,8°C 1007,2hPa 4,3°C 0,0km/h (0Bft) 0,0km/h 0,0l/m² 6,791klx 0,0min
13:20 4,4°C 78,8% 1,0°C 1007,2hPa 4,4°C 0,0km/h (0Bft) 0,0km/h 0,0l/m² 7,493klx 0,0min
13:15 4,2°C 79,0% 0,9°C 1007,2hPa 4,2°C 0,0km/h (0Bft) 0,0km/h 0,0l/m² 8,496klx 0,0min
13:10 4,3°C 79,4% 1,1°C 1007,2hPa 4,3°C 0,0km/h (0Bft) 0,0km/h 0,0l/m² 7,727klx 0,0min
13:05 4,4°C 78,9% 1,0°C 1007,3hPa 4,4°C 0,0km/h (0Bft) 0,0km/h 0,0l/m² 6,308klx 0,0min
13:00 4,4°C 79,2% 1,1°C 1007,5hPa 4,4°C 0,0km/h (0Bft) 0,0km/h 0,0l/m² 9,463klx 0,0min
12:55 4,4°C 80,0% 1,3°C 1007,6hPa 4,4°C 0,0km/h (0Bft) 0,0km/h 0,0l/m² 9,212klx 0,0min
12:50 4,6°C 80,8% 1,6°C 1007,6hPa 4,6°C 0,0km/h (0Bft) 0,0km/h 0,0l/m² 9,446klx 0,0min
12:45 4,6°C 80,4% 1,5°C 1007,7hPa 4,6°C 0,0km/h (0Bft) 0,0km/h 0,0l/m² 11,526klx 0,0min
12:40 4,2°C 79,8% 1,1°C 1007,8hPa 4,2°C 0,0km/h (0Bft) 0,0km/h 0,0l/m² 12,692klx 0,0min
12:35 3,9°C 79,6% 0,7°C 1007,8hPa 3,9°C 0,0km/h (0Bft) 0,0km/h 0,0l/m² 9,755klx 0,0min
12:30 3,3°C 79,2% 0,0°C 1007,9hPa 3,3°C 0,0km/h (0Bft) 0,0km/h 0,0l/m² 7,744klx 0,0min
12:25 3,4°C 79,8% 0,2°C 1008,0hPa 3,4°C 0,0km/h (0Bft) 0,0km/h 0,0l/m² 8,338klx 0,0min
12:20 3,5°C 79,9% 0,4°C 1008,1hPa 3,5°C 0,0km/h (0Bft) 0,0km/h 0,0l/m² 7,959klx 0,0min
12:15 3,4°C 79,6% 0,2°C 1008,1hPa 3,4°C 0,0km/h (0Bft) 0,0km/h 0,0l/m² 7,942klx 0,0min
12:10 3,2°C 79,2% 0,0°C 1008,3hPa 3,2°C 0,0km/h (0Bft) 0,0km/h 0,0l/m² 6,326klx 0,0min
12:05 3,4°C 80,0% 0,3°C 1008,4hPa 3,4°C 0,0km/h (0Bft) 0,0km/h 0,0l/m² 7,670klx 0,0min
12:00 3,3°C 80,3% 0,2°C 1008,5hPa 3,3°C 0,0km/h (0Bft) 0,0km/h 0,0l/m² 9,032klx 0,0min
11:55 3,3°C 80,8% 0,3°C 1008,6hPa 3,3°C 0,0km/h (0Bft) 0,0km/h 0,0l/m² 8,372klx 0,0min
11:50 3,3°C 80,7% 0,3°C 1008,7hPa 3,3°C 0,0km/h (0Bft) 0,0km/h 0,0l/m² 8,604klx 0,0min
11:45 3,2°C 81,2% 0,3°C 1008,8hPa 3,2°C 0,0km/h (0Bft) 0,0km/h 0,0l/m² 10,396klx 0,0min
11:40 3,2°C 81,9% 0,4°C 1008,9hPa 3,2°C 0,0km/h (0Bft) 0,0km/h 0,0l/m² 11,198klx 0,0min
11:35 3,3°C 81,9% 0,5°C 1009,0hPa 3,3°C 0,0km/h (0Bft) 0,0km/h 0,0l/m² 9,463klx 0,0min
11:30 3,3°C 82,4% 0,6°C 1009,1hPa 3,3°C 0,0km/h (0Bft) 0,0km/h 0,0l/m² 9,762klx 0,0min
11:25 3,0°C 82,0% 0,2°C 1009,1hPa 3,0°C 0,0km/h (0Bft) 0,0km/h 0,0l/m² 9,342klx 0,0min
11:20 2,5°C 81,4% -0,4°C 1009,1hPa 2,5°C 0,0km/h (0Bft) 0,0km/h 0,0l/m² 8,450klx 0,0min
11:15 2,3°C 81,3% -0,6°C 1009,0hPa 2,3°C 0,0km/h (0Bft) 0,0km/h 0,0l/m² 8,795klx 0,0min
11:10 2,4°C 81,8% -0,4°C 1009,0hPa 2,4°C 0,0km/h (0Bft) 0,0km/h 0,0l/m² 7,707klx 0,0min
11:05 3,1°C 82,4% 0,4°C 1009,1hPa 3,1°C 0,0km/h (0Bft) 0,0km/h 0,0l/m² 7,558klx 0,0min
11:00 3,1°C 82,3% 0,3°C 1009,0hPa 3,1°C 0,0km/h (0Bft) 0,0km/h 0,0l/m² 7,983klx 0,0min
10:55 2,6°C 81,5% -0,3°C 1009,0hPa 2,6°C 0,0km/h (0Bft) 0,0km/h 0,0l/m² 7,819klx 0,0min
10:50 2,6°C 82,1% -0,1°C 1009,1hPa 2,6°C 0,0km/h (0Bft) 0,0km/h 0,0l/m² 8,341klx 0,0min
10:45 2,4°C 82,0% -0,4°C 1009,2hPa 2,4°C 0,0km/h (0Bft) 0,0km/h 0,0l/m² 6,727klx 0,0min
10:40 2,3°C 82,1% -0,4°C 1009,2hPa 2,3°C 0,0km/h (0Bft) 0,0km/h 0,0l/m² 7,428klx 0,0min
10:35 2,6°C 82,3% -0,1°C 1009,2hPa 2,6°C 0,0km/h (0Bft) 0,0km/h 0,0l/m² 9,024klx 0,0min
10:30 2,7°C 83,2% 0,2°C 1009,3hPa 2,7°C 0,0km/h (0Bft) 0,0km/h 0,0l/m² 9,169klx 0,0min
10:25 2,7°C 83,3% 0,2°C 1009,3hPa 2,7°C 0,0km/h (0Bft) 0,0km/h 0,0l/m² 7,734klx 0,0min
10:20 2,6°C 83,8% 0,1°C 1009,5hPa 2,6°C 0,0km/h (0Bft) 0,0km/h 0,0l/m² 7,808klx 0,0min
10:15 2,6°C 84,7% 0,2°C 1009,5hPa 2,6°C 0,0km/h (0Bft) 0,0km/h 0,0l/m² 6,932klx 0,0min
10:10 2,5°C 85,2% 0,3°C 1009,5hPa 2,5°C 0,0km/h (0Bft) 0,0km/h 0,0l/m² 6,059klx 0,0min
10:05 2,5°C 86,0% 0,4°C 1009,4hPa 2,5°C 0,0km/h (0Bft) 0,0km/h 0,0l/m² 6,627klx 0,0min
10:00 2,4°C 86,8% 0,4°C 1009,5hPa 2,4°C 0,0km/h (0Bft) 0,0km/h 0,0l/m² 5,980klx 0,0min
09:55 2,4°C 87,4% 0,5°C 1009,5hPa 2,4°C 0,0km/h (0Bft) 0,0km/h 0,0l/m² 4,488klx 0,0min
09:50 2,4°C 87,9% 0,6°C 1009,6hPa 2,4°C 0,0km/h (0Bft) 0,0km/h 0,0l/m² 3,968klx 0,0min
09:45 2,3°C 87,8% 0,5°C 1009,6hPa 2,3°C 0,0km/h (0Bft) 0,0km/h 0,0l/m² 4,235klx 0,0min
09:40 2,3°C 88,4% 0,6°C 1009,6hPa 2,3°C 0,0km/h (0Bft) 0,0km/h 0,0l/m² 4,920klx 0,0min
09:35 2,3°C 89,0% 0,6°C 1009,7hPa 2,3°C 0,0km/h (0Bft) 0,0km/h 0,0l/m² 4,632klx 0,0min
09:30 2,3°C 89,4% 0,7°C 1009,7hPa 2,3°C 0,0km/h (0Bft) 0,0km/h 0,0l/m² 3,933klx 0,0min
09:25 2,3°C 89,8% 0,8°C 1009,6hPa 2,3°C 0,0km/h (0Bft) 0,0km/h 0,0l/m² 3,539klx 0,0min
09:20 2,2°C 90,0% 0,7°C 1009,6hPa 2,2°C 0,0km/h (0Bft) 0,0km/h 0,0l/m² 2,490klx 0,0min
09:15 2,2°C 90,4% 0,8°C 1009,6hPa 2,2°C 0,0km/h (0Bft) 0,0km/h 0,0l/m² 1,754klx 0,0min
09:10 2,3°C 90,7% 0,9°C 1009,6hPa 2,3°C 0,0km/h (0Bft) 0,0km/h 0,0l/m² 1,015klx 0,0min
09:05 2,2°C 90,9% 0,9°C 1009,5hPa 2,2°C 0,0km/h (0Bft) 0,0km/h 0,0l/m² 0,835klx 0,0min
09:00 2,3°C 91,3% 1,0°C 1009,5hPa 2,3°C 0,0km/h (0Bft) 0,0km/h 0,0l/m² 0,976klx 0,0min
08:55 2,3°C 91,5% 1,1°C 1009,6hPa 2,3°C 0,0km/h (0Bft) 0,0km/h 0,0l/m² 0,647klx 0,0min
08:50 2,3°C 91,9% 1,1°C 1009,6hPa 2,3°C 0,0km/h (0Bft) 0,0km/h 0,0l/m² 0,517klx 0,0min
08:45 2,2°C 92,1% 1,1°C 1009,5hPa 2,2°C 0,0km/h (0Bft) 0,0km/h 0,0l/m² 0,490klx 0,0min
08:40 2,2°C 92,2% 1,0°C 1009,5hPa 2,2°C 0,0km/h (0Bft) 0,0km/h 0,0l/m² 0,384klx 0,0min
08:35 2,1°C 92,3% 1,0°C 1009,6hPa 2,1°C 0,0km/h (0Bft) 0,0km/h 0,0l/m² 0,333klx 0,0min
08:30 2,0°C 92,4% 0,9°C 1009,6hPa 2,0°C 0,0km/h (0Bft) 0,0km/h 0,0l/m² 0,364klx 0,0min
08:25 2,0°C 92,7% 1,0°C 1009,6hPa 2,0°C 0,0km/h (0Bft) 0,0km/h 0,0l/m² 0,221klx 0,0min
08:20 2,0°C 92,9% 0,9°C 1009,6hPa 2,0°C 0,0km/h (0Bft) 0,0km/h 0,0l/m² 0,155klx 0,0min
08:15 2,1°C 93,1% 1,1°C 1009,6hPa 2,1°C 0,0km/h (0Bft) 0,0km/h 0,0l/m² 0,106klx 0,0min
08:10 2,0°C 92,9% 0,9°C 1009,6hPa 2,0°C 0,0km/h (0Bft) 0,0km/h 0,0l/m² 0,061klx 0,0min
08:05 2,0°C 92,7% 0,9°C 1009,7hPa 2,0°C 0,0km/h (0Bft) 0,0km/h 0,0l/m² 0,028klx 0,0min
08:00 1,8°C 92,7% 0,8°C 1009,8hPa 1,8°C 0,0km/h (0Bft) 0,0km/h 0,0l/m² 0,016klx 0,0min
07:55 1,9°C 92,8% 0,8°C 1009,7hPa 1,9°C 0,0km/h (0Bft) 0,0km/h 0,0l/m² 0,010klx 0,0min
07:50 1,8°C 92,8% 0,8°C 1009,8hPa 1,8°C 0,0km/h (0Bft) 0,0km/h 0,0l/m² 0,005klx 0,0min
07:45 1,8°C 92,8% 0,8°C 1009,8hPa 1,8°C 0,0km/h (0Bft) 0,0km/h 0,0l/m² 0,002klx 0,0min
07:40 1,8°C 92,8% 0,7°C 1009,8hPa 1,8°C 0,0km/h (0Bft) 0,0km/h 0,0l/m² 0,001klx 0,0min
07:35 1,8°C 92,9% 0,8°C 1009,7hPa 1,8°C 0,0km/h (0Bft) 0,0km/h 0,0l/m² 0,001klx 0,0min
07:30 1,8°C 93,0% 0,7°C 1009,7hPa 1,8°C 0,0km/h (0Bft) 0,0km/h 0,0l/m² 0,000klx 0,0min
07:25 1,7°C 93,0% 0,7°C 1009,7hPa 1,7°C 0,0km/h (0Bft) 0,0km/h 0,0l/m² 0,000klx 0,0min
07:20 1,7°C 93,1% 0,7°C 1009,7hPa 1,7°C 0,0km/h (0Bft) 0,0km/h 0,0l/m² 0,000klx 0,0min
07:15 1,7°C 93,2% 0,7°C 1009,7hPa 1,7°C 0,0km/h (0Bft) 0,0km/h 0,0l/m² 0,000klx 0,0min
07:10 1,7°C 93,2% 0,7°C 1009,7hPa 1,7°C 0,0km/h (0Bft) 0,0km/h 0,0l/m² 0,000klx 0,0min
07:05 1,8°C 93,5% 0,9°C 1009,7hPa 1,8°C 0,0km/h (0Bft) 0,0km/h 0,0l/m² 0,000klx 0,0min
07:00 1,9°C 93,8% 1,0°C 1009,7hPa 1,9°C 0,0km/h (0Bft) 0,0km/h 0,0l/m² 0,000klx 0,0min
06:55 1,7°C 93,8% 0,8°C 1009,8hPa 1,7°C 0,0km/h (0Bft) 0,0km/h 0,0l/m² 0,000klx 0,0min
06:50 1,9°C 94,2% 1,0°C 1009,8hPa 1,9°C 0,0km/h (0Bft) 0,0km/h 0,0l/m² 0,000klx 0,0min
06:45 1,9°C 94,4% 1,0°C 1009,8hPa 1,9°C 0,0km/h (0Bft) 0,0km/h 0,0l/m² 0,000klx 0,0min
06:40 1,7°C 94,4% 0,9°C 1009,8hPa 1,7°C 0,0km/h (0Bft) 0,0km/h 0,0l/m² 0,000klx 0,0min
06:35 1,7°C 94,6% 0,9°C 1009,8hPa 1,7°C 0,0km/h (0Bft) 0,0km/h 0,0l/m² 0,000klx 0,0min
06:30 1,3°C 94,3% 0,4°C 1009,8hPa 1,3°C 0,0km/h (0Bft) 0,0km/h 0,0l/m² 0,000klx 0,0min
06:25 1,6°C 94,7% 0,8°C 1009,8hPa 1,6°C 0,0km/h (0Bft) 0,0km/h 0,0l/m² 0,000klx 0,0min
06:20 1,1°C 94,2% 0,3°C 1009,7hPa 1,1°C 0,0km/h (0Bft) 0,0km/h 0,0l/m² 0,000klx 0,0min
06:15 1,4°C 94,7% 0,6°C 1009,7hPa 1,4°C 0,0km/h (0Bft) 0,0km/h 0,0l/m² 0,000klx 0,0min
06:10 1,4°C 94,8% 0,6°C 1009,6hPa 1,4°C 0,0km/h (0Bft) 0,0km/h 0,0l/m² 0,000klx 0,0min
06:05 1,4°C 95,3% 0,7°C 1009,6hPa 1,4°C 0,0km/h (0Bft) 0,0km/h 0,0l/m² 0,000klx 0,0min
06:00 1,4°C 95,2% 0,7°C 1009,5hPa 1,4°C 0,0km/h (0Bft) 0,0km/h 0,0l/m² 0,000klx 0,0min
05:55 1,5°C 95,4% 0,9°C 1009,5hPa 1,5°C 0,0km/h (0Bft) 0,0km/h 0,0l/m² 0,000klx 0,0min
05:50 1,6°C 95,6% 1,0°C 1009,4hPa 1,6°C 0,0km/h (0Bft) 0,0km/h 0,0l/m² 0,000klx 0,0min
05:45 0,8°C 94,7% 0,1°C 1009,6hPa 0,8°C 0,0km/h (0Bft) 0,0km/h 0,0l/m² 0,000klx 0,0min
05:40 0,8°C 94,7% 0,1°C 1009,7hPa 0,8°C 0,0km/h (0Bft) 0,0km/h 0,0l/m² 0,000klx 0,0min
05:35 1,2°C 95,3% 0,5°C 1009,7hPa 1,2°C 0,0km/h (0Bft) 0,0km/h 0,0l/m² 0,000klx 0,0min
05:30 0,9°C 95,0% 0,2°C 1009,7hPa 0,9°C 0,0km/h (0Bft) 0,0km/h 0,0l/m² 0,000klx 0,0min
05:25 0,5°C 94,3% -0,4°C 1009,7hPa 0,5°C 0,0km/h (0Bft) 0,0km/h 0,0l/m² 0,000klx 0,0min
05:20 0,3°C 94,1% -0,6°C 1009,8hPa 0,3°C 0,0km/h (0Bft) 0,0km/h 0,0l/m² 0,000klx 0,0min
05:15 1,0°C 95,3% 0,4°C 1009,8hPa 1,0°C 0,0km/h (0Bft) 0,0km/h 0,0l/m² 0,000klx 0,0min
05:10 0,9°C 95,2% 0,2°C 1009,9hPa 0,9°C 0,0km/h (0Bft) 0,0km/h 0,0l/m² 0,000klx 0,0min
05:05 1,0°C 95,4% 0,4°C 1010,1hPa 1,0°C 0,0km/h (0Bft) 0,0km/h 0,0l/m² 0,000klx 0,0min
05:00 0,9°C 95,4% 0,3°C 1010,2hPa 0,9°C 0,0km/h (0Bft) 0,0km/h 0,0l/m² 0,000klx 0,0min
04:55 0,5°C 94,9% -0,2°C 1010,2hPa 0,5°C 0,0km/h (0Bft) 0,0km/h 0,0l/m² 0,000klx 0,0min
04:50 0,3°C 94,3% -0,6°C 1010,2hPa 0,3°C 0,0km/h (0Bft) 0,0km/h 0,0l/m² 0,000klx 0,0min
04:45 0,5°C 94,6% -0,3°C 1010,2hPa 0,5°C 0,0km/h (0Bft) 0,0km/h 0,0l/m² 0,000klx 0,0min
04:40 0,6°C 94,8% -0,1°C 1010,3hPa 0,6°C 0,0km/h (0Bft) 0,0km/h 0,0l/m² 0,000klx 0,0min
04:35 0,3°C 94,6% -0,4°C 1010,3hPa 0,3°C 0,0km/h (0Bft) 0,0km/h 0,0l/m² 0,000klx 0,0min
04:30 0,6°C 94,7% -0,2°C 1010,3hPa 0,6°C 0,0km/h (0Bft) 0,0km/h 0,0l/m² 0,000klx 0,0min
04:25 0,3°C 94,4% -0,5°C 1010,3hPa 0,3°C 0,0km/h (0Bft) 0,0km/h 0,0l/m² 0,000klx 0,0min
04:20 0,1°C 94,3% -0,7°C 1010,3hPa 0,1°C 0,0km/h (0Bft) 0,0km/h 0,0l/m² 0,000klx 0,0min
04:15 0,0°C 94,0% -0,8°C 1010,2hPa 0,0°C 0,0km/h (0Bft) 0,0km/h 0,0l/m² 0,000klx 0,0min
04:10 0,0°C 94,0% -0,8°C 1010,2hPa 0,0°C 0,0km/h (0Bft) 0,0km/h 0,0l/m² 0,000klx 0,0min
04:05 0,0°C 94,1% -0,8°C 1010,1hPa 0,0°C 0,0km/h (0Bft) 0,0km/h 0,0l/m² 0,000klx 0,0min
04:00 0,0°C 94,1% -0,8°C 1010,2hPa 0,0°C 0,0km/h (0Bft) 0,0km/h 0,0l/m² 0,000klx 0,0min
03:55 0,0°C 94,2% -0,7°C 1010,2hPa 0,0°C 0,0km/h (0Bft) 0,0km/h 0,0l/m² 0,000klx 0,0min
03:50 0,0°C 94,5% -0,7°C 1010,2hPa 0,0°C 0,0km/h (0Bft) 0,0km/h 0,0l/m² 0,000klx 0,0min
03:45 0,3°C 94,9% -0,4°C 1010,1hPa 0,3°C 0,0km/h (0Bft) 0,0km/h 0,0l/m² 0,000klx 0,0min
03:40 0,3°C 94,9% -0,4°C 1010,1hPa 0,3°C 0,0km/h (0Bft) 0,0km/h 0,0l/m² 0,000klx 0,0min
03:35 0,4°C 95,3% -0,3°C 1010,0hPa 0,4°C 0,0km/h (0Bft) 0,0km/h 0,0l/m² 0,000klx 0,0min
03:30 0,5°C 95,2% -0,2°C 1010,0hPa 0,5°C 0,0km/h (0Bft) 0,0km/h 0,0l/m² 0,000klx 0,0min
03:25 0,4°C 95,3% -0,3°C 1010,1hPa 0,4°C 0,0km/h (0Bft) 0,0km/h 0,0l/m² 0,000klx 0,0min
03:20 0,5°C 95,2% -0,2°C 1010,2hPa 0,5°C 0,0km/h (0Bft) 0,0km/h 0,0l/m² 0,000klx 0,0min
03:15 0,2°C 94,9% -0,5°C 1010,2hPa 0,2°C 0,0km/h (0Bft) 0,0km/h 0,0l/m² 0,000klx 0,0min
03:10 -0,1°C 94,7% -0,7°C 1010,2hPa -0,1°C 0,0km/h (0Bft) 0,0km/h 0,0l/m² 0,000klx 0,0min
03:05 -0,2°C 94,6% -0,8°C 1010,2hPa -0,2°C 0,0km/h (0Bft) 0,0km/h 0,0l/m² 0,000klx 0,0min
03:00 -0,2°C 94,6% -0,9°C 1010,2hPa -0,2°C 0,0km/h (0Bft) 0,0km/h 0,0l/m² 0,000klx 0,0min
02:55 -0,3°C 94,6% -1,0°C 1010,2hPa -0,3°C 0,0km/h (0Bft) 0,0km/h 0,0l/m² 0,000klx 0,0min
02:50 -0,4°C 94,6% -1,0°C 1010,2hPa -0,4°C 0,0km/h (0Bft) 0,0km/h 0,0l/m² 0,000klx 0,0min
02:45 -0,4°C 94,6% -1,0°C 1010,2hPa -0,4°C 0,0km/h (0Bft) 0,0km/h 0,0l/m² 0,000klx 0,0min
02:40 -0,4°C 94,7% -1,1°C 1010,2hPa -0,4°C 0,0km/h (0Bft) 0,0km/h 0,0l/m² 0,000klx 0,0min
02:35 -0,5°C 94,7% -1,2°C 1010,2hPa -0,5°C 0,0km/h (0Bft) 0,0km/h 0,0l/m² 0,000klx 0,0min
02:30 -0,6°C 94,7% -1,3°C 1010,2hPa -0,6°C 0,0km/h (0Bft) 0,0km/h 0,0l/m² 0,000klx 0,0min
02:25 -0,6°C 94,7% -1,3°C 1010,1hPa -0,6°C 0,0km/h (0Bft) 0,0km/h 0,0l/m² 0,000klx 0,0min
02:20 -0,7°C 94,9% -1,3°C 1010,0hPa -0,7°C 0,0km/h (0Bft) 0,0km/h 0,0l/m² 0,000klx 0,0min
02:15 -0,8°C 95,0% -1,5°C 1009,9hPa -0,8°C 0,0km/h (0Bft) 0,0km/h 0,0l/m² 0,000klx 0,0min
02:10 -1,0°C 94,9% -1,7°C 1009,8hPa -1,0°C 0,0km/h (0Bft) 0,0km/h 0,0l/m² 0,001klx 0,0min
02:05 -1,2°C 94,7% -1,8°C 1009,8hPa -1,2°C 0,0km/h (0Bft) 0,0km/h 0,0l/m² 0,001klx 0,0min
02:00 -1,2°C 94,7% -1,8°C 1009,8hPa -1,2°C 0,0km/h (0Bft) 0,0km/h 0,0l/m² 0,001klx 0,0min
01:55 -1,2°C 94,9% -1,8°C 1009,8hPa -1,2°C 0,0km/h (0Bft) 0,0km/h 0,0l/m² 0,000klx 0,0min
01:50 -0,8°C 95,5% -1,3°C 1009,8hPa -0,8°C 0,0km/h (0Bft) 0,0km/h 0,0l/m² 0,000klx 0,0min
01:45 -0,4°C 95,9% -0,9°C 1009,7hPa -0,4°C 0,0km/h (0Bft) 0,0km/h 0,0l/m² 0,001klx 0,0min
01:40 -0,4°C 95,9% -0,9°C 1009,6hPa -0,4°C 0,0km/h (0Bft) 0,0km/h 0,0l/m² 0,001klx 0,0min
01:35 -0,3°C 95,8% -0,8°C 1009,6hPa -0,3°C 0,0km/h (0Bft) 0,0km/h 0,0l/m² 0,001klx 0,0min
01:30 -0,3°C 95,5% -0,9°C 1009,7hPa -0,3°C 0,0km/h (0Bft) 0,0km/h 0,0l/m² 0,000klx 0,0min
01:25 -0,5°C 95,3% -1,0°C 1009,7hPa -0,5°C 0,0km/h (0Bft) 0,0km/h 0,0l/m² 0,000klx 0,0min
01:20 -0,5°C 95,4% -1,0°C 1009,7hPa -0,5°C 0,0km/h (0Bft) 0,0km/h 0,0l/m² 0,001klx 0,0min
01:15 -0,4°C 95,4% -1,0°C 1009,7hPa -0,4°C 0,0km/h (0Bft) 0,0km/h 0,0l/m² 0,000klx 0,0min
01:10 -0,5°C 95,3% -1,1°C 1009,7hPa -0,5°C 0,0km/h (0Bft) 0,0km/h 0,0l/m² 0,000klx 0,0min
01:05 -0,5°C 95,3% -1,1°C 1009,8hPa -0,5°C 0,0km/h (0Bft) 0,0km/h 0,0l/m² 0,000klx 0,0min
01:00 -0,4°C 95,2% -1,0°C 1009,8hPa -0,4°C 0,0km/h (0Bft) 0,0km/h 0,0l/m² 0,000klx 0,0min
00:55 -0,3°C 95,2% -0,9°C 1009,8hPa -0,3°C 0,0km/h (0Bft) 0,0km/h 0,0l/m² 0,000klx 0,0min
00:50 -0,2°C 95,1% -0,8°C 1009,8hPa -0,2°C 0,0km/h (0Bft) 0,0km/h 0,0l/m² 0,000klx 0,0min
00:45 -0,1°C 95,1% -0,7°C 1009,9hPa -0,1°C 0,0km/h (0Bft) 0,0km/h 0,0l/m² 0,000klx 0,0min
00:40 -0,1°C 95,2% -0,6°C 1009,9hPa -0,1°C 0,0km/h (0Bft) 0,0km/h 0,0l/m² 0,000klx 0,0min
00:35 0,2°C 95,5% -0,5°C 1009,8hPa 0,2°C 0,0km/h (0Bft) 0,0km/h 0,0l/m² 0,000klx 0,0min
00:30 0,0°C 95,2% -0,6°C 1009,9hPa 0,0°C 0,0km/h (0Bft) 0,0km/h 0,0l/m² 0,000klx 0,0min
00:25 -0,2°C 95,0% -0,8°C 1010,0hPa -0,2°C 0,0km/h (0Bft) 0,0km/h 0,0l/m² 0,000klx 0,0min
00:20 -0,3°C 94,9% -0,9°C 1009,9hPa -0,3°C 0,0km/h (0Bft) 0,0km/h 0,0l/m² 0,000klx 0,0min
00:15 -0,3°C 94,9% -0,9°C 1009,8hPa -0,3°C 0,0km/h (0Bft) 0,0km/h 0,0l/m² 0,000klx 0,0min
00:10 -0,2°C 95,0% -0,8°C 1009,8hPa -0,2°C 0,0km/h (0Bft) 0,0km/h 0,0l/m² 0,000klx 0,0min
00:05 -0,1°C 95,0% -0,7°C 1009,7hPa -0,1°C 0,0km/h (0Bft) 0,0km/h 0,0l/m² 0,000klx 0,0min
00:00 -0,1°C 95,0% -0,7°C 1009,8hPa -0,1°C 0,0km/h (0Bft) 0,0km/h 0,0l/m² 0,000klx 0,0min

Aktuelle Wetterdaten

03.12.2021 20:25 Uhr